createdAt,value
2018-07-23T00:00:52.463Z,0
2018-07-23T00:01:57.926Z,0
2018-07-23T00:03:02.950Z,0
2018-07-23T00:04:08.116Z,0
2018-07-23T00:05:13.603Z,0
2018-07-23T00:06:18.813Z,0
2018-07-23T00:07:24.644Z,0
2018-07-23T00:08:29.802Z,0
2018-07-23T00:09:34.950Z,0
2018-07-23T00:10:39.836Z,0
2018-07-23T00:11:45.030Z,0
2018-07-23T00:12:50.313Z,0
2018-07-23T00:13:55.242Z,0
2018-07-23T00:15:00.705Z,0
2018-07-23T00:16:06.479Z,0
2018-07-23T00:17:11.684Z,0
2018-07-23T00:18:16.896Z,0
2018-07-23T00:19:22.342Z,0
2018-07-23T00:20:27.578Z,0
2018-07-23T00:21:33.562Z,0
2018-07-23T00:22:38.828Z,0
2018-07-23T00:23:43.709Z,0
2018-07-23T00:24:49.596Z,0
2018-07-23T00:25:54.878Z,0
2018-07-23T00:27:00.312Z,0
2018-07-23T00:28:05.491Z,0
2018-07-23T00:29:10.963Z,0
2018-07-23T00:30:16.427Z,0
2018-07-23T00:31:22.144Z,0
2018-07-23T00:32:27.679Z,0
2018-07-23T00:33:33.322Z,0
2018-07-23T00:34:38.205Z,0
2018-07-23T00:35:43.411Z,0
2018-07-23T00:36:49.195Z,0
2018-07-23T00:37:54.343Z,0
2018-07-23T00:38:59.819Z,0
2018-07-23T00:40:05.372Z,0
2018-07-23T00:41:10.530Z,0
2018-07-23T00:42:16.032Z,0
2018-07-23T00:43:21.425Z,0
2018-07-23T00:44:26.095Z,0
2018-07-23T00:45:31.395Z,0
2018-07-23T00:46:37.032Z,0
2018-07-23T00:47:42.467Z,0
2018-07-23T00:48:48.153Z,0
2018-07-23T00:49:53.587Z,0
2018-07-23T00:50:59.083Z,0
2018-07-23T00:52:04.504Z,0
2018-07-23T00:53:09.390Z,0
2018-07-23T00:54:14.828Z,0
2018-07-23T00:55:20.624Z,0
2018-07-23T00:56:25.768Z,0
2018-07-23T00:57:31.622Z,0
2018-07-23T00:58:36.508Z,0
2018-07-23T00:59:41.941Z,0
2018-07-23T01:00:47.672Z,0
2018-07-23T01:01:53.266Z,0
2018-07-23T01:02:57.869Z,0
2018-07-23T01:04:03.092Z,0
2018-07-23T01:05:08.032Z,0
2018-07-23T01:06:13.467Z,0
2018-07-23T01:07:18.970Z,0
2018-07-23T01:08:24.140Z,0
2018-07-23T01:09:29.837Z,0
2018-07-23T01:10:35.322Z,0
2018-07-23T01:11:40.479Z,0
2018-07-23T01:12:46.049Z,0
2018-07-23T01:13:51.292Z,0
2018-07-23T01:14:56.815Z,0
2018-07-23T01:16:01.997Z,0
2018-07-23T01:17:07.154Z,0
2018-07-23T01:18:12.349Z,0
2018-07-23T01:19:18.155Z,0
2018-07-23T01:20:23.350Z,0
2018-07-23T01:21:28.934Z,0
2018-07-23T01:22:34.084Z,0
2018-07-23T01:23:39.249Z,0
2018-07-23T01:24:44.660Z,0
2018-07-23T01:25:49.780Z,0
2018-07-23T01:26:54.934Z,0
2018-07-23T01:28:00.837Z,0
2018-07-23T01:29:06.015Z,0
2018-07-23T01:30:11.458Z,0
2018-07-23T01:31:16.498Z,0
2018-07-23T01:32:21.377Z,0
2018-07-23T01:33:27.737Z,0
2018-07-23T01:34:32.878Z,0
2018-07-23T01:35:38.313Z,0
2018-07-23T01:36:43.738Z,0
2018-07-23T01:37:48.617Z,0
2018-07-23T01:38:54.049Z,0
2018-07-23T01:39:59.460Z,0
2018-07-23T01:41:04.611Z,0
2018-07-23T01:42:09.482Z,0
2018-07-23T01:43:14.905Z,0
2018-07-23T01:44:20.417Z,0
2018-07-23T01:45:27.096Z,0
2018-07-23T01:46:32.548Z,0
2018-07-23T01:47:37.416Z,0
2018-07-23T01:48:43.159Z,0
2018-07-23T01:49:48.299Z,0
2018-07-23T01:50:53.801Z,0
2018-07-23T01:51:59.307Z,0
2018-07-23T01:53:04.216Z,0
2018-07-23T01:54:09.767Z,0
2018-07-23T01:55:14.983Z,0
2018-07-23T01:56:20.132Z,0
2018-07-23T01:57:40.687Z,0
2018-07-23T01:58:45.831Z,0
2018-07-23T01:59:51.281Z,0
2018-07-23T02:00:56.962Z,0
2018-07-23T02:02:02.188Z,0
2018-07-23T02:03:07.363Z,0
2018-07-23T02:04:13.208Z,0
2018-07-23T02:05:18.655Z,0
2018-07-23T02:07:45.111Z,0
2018-07-23T02:08:50.261Z,0
2018-07-23T02:09:55.698Z,0
2018-07-23T02:11:00.864Z,0
2018-07-23T02:12:05.809Z,0
2018-07-23T02:13:11.315Z,0
2018-07-23T02:14:16.497Z,0
2018-07-23T02:15:21.945Z,0
2018-07-23T02:16:27.980Z,0
2018-07-23T02:17:33.415Z,0
2018-07-23T02:18:39.023Z,0
2018-07-23T02:19:44.455Z,0
2018-07-23T02:20:49.753Z,0
2018-07-23T02:21:55.015Z,0
2018-07-23T02:23:00.170Z,0
2018-07-23T02:24:05.502Z,0
2018-07-23T02:25:11.018Z,0
2018-07-23T02:26:16.164Z,0
2018-07-23T02:27:21.621Z,0
2018-07-23T02:28:41.775Z,0
2018-07-23T02:29:46.661Z,0
2018-07-23T02:30:52.156Z,0
2018-07-23T02:31:57.589Z,0
2018-07-23T02:33:02.512Z,0
2018-07-23T02:34:07.647Z,0
2018-07-23T02:35:12.803Z,0
2018-07-23T02:36:18.316Z,0
2018-07-23T02:37:24.054Z,0
2018-07-23T02:38:28.942Z,0
2018-07-23T02:39:34.710Z,0
2018-07-23T02:40:39.602Z,0
2018-07-23T02:41:45.052Z,0
2018-07-23T02:42:50.910Z,0
2018-07-23T02:43:56.196Z,0
2018-07-23T02:45:01.408Z,0
2018-07-23T02:46:06.897Z,0
2018-07-23T02:47:12.359Z,0
2018-07-23T02:48:17.788Z,0
2018-07-23T02:49:23.206Z,0
2018-07-23T02:50:27.802Z,0
2018-07-23T02:51:33.047Z,0
2018-07-23T02:52:38.521Z,0
2018-07-23T02:53:43.389Z,0
2018-07-23T02:54:49.069Z,0
2018-07-23T02:55:54.579Z,0
2018-07-23T02:57:00.104Z,0
2018-07-23T02:58:05.557Z,0
2018-07-23T02:59:10.846Z,0
2018-07-23T03:00:15.899Z,0
2018-07-23T03:01:21.297Z,0
2018-07-23T03:02:26.651Z,0
2018-07-23T03:03:31.990Z,0
2018-07-23T03:04:37.550Z,0
2018-07-23T03:05:42.423Z,0
2018-07-23T03:06:47.943Z,0
2018-07-23T03:07:53.104Z,0
2018-07-23T03:08:57.970Z,0
2018-07-23T03:10:03.136Z,0
2018-07-23T03:11:07.965Z,0
2018-07-23T03:12:13.402Z,0
2018-07-23T03:13:18.638Z,0
2018-07-23T03:14:24.097Z,0
2018-07-23T03:15:29.600Z,0
2018-07-23T03:16:35.048Z,0
2018-07-23T03:17:40.542Z,0
2018-07-23T03:18:45.927Z,0
2018-07-23T03:19:51.080Z,0
2018-07-23T03:20:56.531Z,0
2018-07-23T03:22:02.234Z,0
2018-07-23T03:23:06.914Z,0
2018-07-23T03:24:12.071Z,0
2018-07-23T03:25:17.464Z,0
2018-07-23T03:26:22.721Z,0
2018-07-23T03:27:28.120Z,0
2018-07-23T03:28:33.278Z,0
2018-07-23T03:29:38.192Z,0
2018-07-23T03:30:43.316Z,0
2018-07-23T03:31:48.499Z,0
2018-07-23T03:32:53.930Z,0
2018-07-23T03:33:59.123Z,0
2018-07-23T03:35:04.363Z,0
2018-07-23T03:36:09.509Z,0
2018-07-23T03:37:14.579Z,0
2018-07-23T03:38:19.760Z,0
2018-07-23T03:39:39.809Z,0
2018-07-23T03:40:44.944Z,0
2018-07-23T03:41:50.373Z,0
2018-07-23T03:42:55.801Z,0
2018-07-23T03:44:00.743Z,0
2018-07-23T03:45:06.204Z,0
2018-07-23T03:46:11.966Z,0
2018-07-23T03:47:17.454Z,0
2018-07-23T03:48:22.981Z,0
2018-07-23T03:49:28.360Z,0
2018-07-23T03:50:33.789Z,0
2018-07-23T03:51:39.482Z,0
2018-07-23T03:52:44.346Z,0
2018-07-23T03:53:49.807Z,0
2018-07-23T03:54:55.536Z,0
2018-07-23T03:56:00.692Z,0
2018-07-23T03:57:05.868Z,0
2018-07-23T03:58:11.596Z,0
2018-07-23T03:59:16.458Z,0
2018-07-23T04:00:21.631Z,0
2018-07-23T04:01:41.399Z,0
2018-07-23T04:02:46.915Z,0
2018-07-23T04:03:52.401Z,0
2018-07-23T04:04:57.833Z,0
2018-07-23T04:06:02.443Z,0
2018-07-23T04:07:07.404Z,0
2018-07-23T04:08:12.561Z,0
2018-07-23T04:09:18.032Z,0
2018-07-23T04:10:23.240Z,0
2018-07-23T04:11:28.668Z,0
2018-07-23T04:12:34.700Z,0
2018-07-23T04:13:40.185Z,0
2018-07-23T04:14:45.337Z,0
2018-07-23T04:15:50.921Z,0
2018-07-23T04:16:56.107Z,0
2018-07-23T04:18:01.538Z,0
2018-07-23T04:19:06.720Z,0
2018-07-23T04:20:11.898Z,0
2018-07-23T04:21:17.049Z,0
2018-07-23T04:22:22.736Z,0
2018-07-23T04:23:27.666Z,0
2018-07-23T04:24:33.228Z,0
2018-07-23T04:25:38.384Z,0
2018-07-23T04:26:43.818Z,0
2018-07-23T04:27:49.211Z,0
2018-07-23T04:28:53.873Z,0
2018-07-23T04:29:59.023Z,0
2018-07-23T04:31:04.445Z,0
2018-07-23T04:32:09.306Z,0
2018-07-23T04:33:14.485Z,0
2018-07-23T04:34:20.175Z,0
2018-07-23T04:35:25.038Z,0
2018-07-23T04:36:30.766Z,0
2018-07-23T04:37:36.215Z,0
2018-07-23T04:38:41.645Z,0
2018-07-23T04:39:47.101Z,0
2018-07-23T04:40:52.531Z,6
2018-07-23T04:41:57.683Z,6
2018-07-23T04:43:02.902Z,6
2018-07-23T04:44:08.336Z,6
2018-07-23T04:45:13.812Z,6
2018-07-23T04:46:19.248Z,6
2018-07-23T04:47:24.122Z,6
2018-07-23T04:48:29.814Z,6
2018-07-23T04:49:35.244Z,6
2018-07-23T04:50:40.648Z,6
2018-07-23T04:51:46.678Z,6
2018-07-23T04:52:52.120Z,6
2018-07-23T04:53:57.259Z,6
2018-07-23T04:55:02.385Z,6
2018-07-23T04:56:07.017Z,6
2018-07-23T04:57:11.866Z,6
2018-07-23T04:58:17.008Z,6
2018-07-23T04:59:22.594Z,6
2018-07-23T05:00:27.820Z,6
2018-07-23T05:01:32.292Z,6
2018-07-23T05:02:37.474Z,6
2018-07-23T05:03:42.972Z,6
2018-07-23T05:04:48.477Z,6
2018-07-23T05:05:53.625Z,24
2018-07-23T05:06:59.377Z,24
2018-07-23T05:08:05.030Z,24
2018-07-23T05:09:10.528Z,24
2018-07-23T05:10:16.210Z,24
2018-07-23T05:11:21.636Z,24
2018-07-23T05:12:41.561Z,24
2018-07-23T05:13:46.989Z,24
2018-07-23T05:14:52.167Z,24
2018-07-23T05:15:58.171Z,24
2018-07-23T05:17:03.149Z,24
2018-07-23T05:18:08.059Z,24
2018-07-23T05:19:13.762Z,24
2018-07-23T05:20:19.240Z,24
2018-07-23T05:21:24.142Z,24
2018-07-23T05:22:44.452Z,24
2018-07-23T05:23:50.021Z,24
2018-07-23T05:24:55.625Z,24
2018-07-23T05:26:01.085Z,24
2018-07-23T05:27:06.588Z,24
2018-07-23T05:28:12.447Z,24
2018-07-23T05:29:17.880Z,24
2018-07-23T05:30:23.034Z,24
2018-07-23T05:31:28.439Z,24
2018-07-23T05:32:33.953Z,24
2018-07-23T05:33:40.085Z,24
2018-07-23T05:34:45.514Z,24
2018-07-23T05:35:50.948Z,24
2018-07-23T05:36:56.197Z,24
2018-07-23T05:38:01.681Z,24
2018-07-23T05:39:06.257Z,40
2018-07-23T05:40:11.391Z,40
2018-07-23T05:41:16.292Z,40
2018-07-23T05:42:21.224Z,40
2018-07-23T05:43:26.613Z,40
2018-07-23T05:44:31.787Z,40
2018-07-23T05:45:37.795Z,40
2018-07-23T05:46:43.223Z,40
2018-07-23T05:47:48.384Z,40
2018-07-23T05:48:54.069Z,40
2018-07-23T05:49:59.502Z,40
2018-07-23T05:51:04.664Z,40
2018-07-23T05:52:10.160Z,40
2018-07-23T05:53:15.078Z,40
2018-07-23T05:54:19.984Z,40
2018-07-23T05:55:25.736Z,40
2018-07-23T05:56:31.164Z,40
2018-07-23T05:57:36.050Z,40
2018-07-23T05:58:41.383Z,40
2018-07-23T05:59:46.526Z,40
2018-07-23T06:00:52.044Z,13
2018-07-23T06:01:57.191Z,13
2018-07-23T06:03:02.349Z,13
2018-07-23T06:04:08.026Z,13
2018-07-23T06:05:13.279Z,13
2018-07-23T06:06:18.857Z,13
2018-07-23T06:07:23.781Z,13
2018-07-23T06:08:28.439Z,13
2018-07-23T06:09:34.016Z,31
2018-07-23T06:10:39.468Z,31
2018-07-23T06:11:44.131Z,31
2018-07-23T06:12:49.558Z,31
2018-07-23T06:13:55.043Z,31
2018-07-23T06:14:59.970Z,31
2018-07-23T06:16:05.419Z,31
2018-07-23T06:17:10.590Z,31
2018-07-23T06:18:16.041Z,31
2018-07-23T06:19:21.475Z,31
2018-07-23T06:20:26.752Z,31
2018-07-23T06:21:32.199Z,31
2018-07-23T06:22:37.390Z,31
2018-07-23T06:23:42.929Z,31
2018-07-23T06:24:48.533Z,31
2018-07-23T06:25:53.680Z,31
2018-07-23T06:26:59.180Z,31
2018-07-23T06:28:04.102Z,31
2018-07-23T06:29:09.304Z,31
2018-07-23T06:30:14.689Z,31
2018-07-23T06:31:19.236Z,31
2018-07-23T06:32:23.821Z,31
2018-07-23T06:33:29.288Z,31
2018-07-23T06:34:34.450Z,31
2018-07-23T06:35:39.669Z,31
2018-07-23T06:36:45.361Z,48
2018-07-23T06:37:50.523Z,48
2018-07-23T06:38:55.984Z,48
2018-07-23T06:40:01.672Z,48
2018-07-23T06:41:07.179Z,48
2018-07-23T06:42:12.375Z,48
2018-07-23T06:43:18.296Z,48
2018-07-23T06:44:23.872Z,48
2018-07-23T06:45:29.415Z,48
2018-07-23T06:46:34.945Z,48
2018-07-23T06:47:39.859Z,48
2018-07-23T06:48:45.592Z,48
2018-07-23T06:49:50.564Z,48
2018-07-23T06:50:55.757Z,48
2018-07-23T06:52:00.486Z,48
2018-07-23T06:53:05.639Z,48
2018-07-23T06:54:10.805Z,48
2018-07-23T06:55:16.263Z,48
2018-07-23T06:56:21.414Z,48
2018-07-23T06:57:27.419Z,48
2018-07-23T06:58:32.705Z,48
2018-07-23T06:59:37.915Z,48
2018-07-23T07:00:43.473Z,48
2018-07-23T07:01:48.512Z,48
2018-07-23T07:02:53.656Z,48
2018-07-23T07:03:59.101Z,48
2018-07-23T07:05:03.694Z,48
2018-07-23T07:06:08.872Z,48
2018-07-23T07:07:14.016Z,48
2018-07-23T07:08:18.902Z,48
2018-07-23T07:09:24.051Z,48
2018-07-23T07:10:29.668Z,48
2018-07-23T07:11:34.750Z,64
2018-07-23T07:12:40.434Z,64
2018-07-23T07:13:45.629Z,64
2018-07-23T07:14:50.554Z,64
2018-07-23T07:15:55.665Z,48
2018-07-23T07:17:01.099Z,64
2018-07-23T07:18:06.547Z,48
2018-07-23T07:19:11.663Z,64
2018-07-23T07:20:17.113Z,37
2018-07-23T07:21:22.630Z,48
2018-07-23T07:22:28.814Z,48
2018-07-23T07:23:34.292Z,31
2018-07-23T07:24:39.762Z,64
2018-07-23T07:25:44.378Z,64
2018-07-23T07:26:49.545Z,48
2018-07-23T07:27:54.161Z,48
2018-07-23T07:28:59.586Z,64
2018-07-23T07:30:04.562Z,55
2018-07-23T07:31:10.014Z,64
2018-07-23T07:32:15.443Z,48
2018-07-23T07:33:20.697Z,55
2018-07-23T07:34:26.163Z,48
2018-07-23T07:35:31.034Z,37
2018-07-23T07:36:37.126Z,48
2018-07-23T07:37:42.630Z,31
2018-07-23T07:38:47.527Z,48
2018-07-23T07:39:52.983Z,48
2018-07-23T07:40:58.504Z,48
2018-07-23T07:42:03.658Z,48
2018-07-23T07:43:08.967Z,31
2018-07-23T07:44:14.281Z,48
2018-07-23T07:45:19.712Z,64
2018-07-23T07:46:25.565Z,64
2018-07-23T07:47:30.820Z,37
2018-07-23T07:48:36.341Z,55
2018-07-23T07:49:41.660Z,55
2018-07-23T07:50:46.824Z,55
2018-07-23T07:51:51.998Z,55
2018-07-23T07:52:57.464Z,55
2018-07-23T07:54:02.386Z,55
2018-07-23T07:55:07.233Z,55
2018-07-23T07:56:11.730Z,55
2018-07-23T07:57:17.019Z,37
2018-07-23T07:58:22.739Z,37
2018-07-23T07:59:27.340Z,55
2018-07-23T08:00:33.059Z,37
2018-07-23T08:01:38.282Z,55
2018-07-23T08:02:43.421Z,55
2018-07-23T08:03:48.335Z,55
2018-07-23T08:04:53.767Z,55
2018-07-23T08:05:59.339Z,55
2018-07-23T08:07:05.212Z,55
2018-07-23T08:08:10.452Z,55
2018-07-23T08:09:15.975Z,55
2018-07-23T08:10:21.420Z,55
2018-07-23T08:11:26.908Z,55
2018-07-23T08:12:32.691Z,55
2018-07-23T08:13:37.372Z,55
2018-07-23T08:14:42.522Z,55
2018-07-23T08:15:47.998Z,55
2018-07-23T08:16:53.453Z,55
2018-07-23T08:17:58.930Z,55
2018-07-23T08:19:04.150Z,55
2018-07-23T08:20:09.707Z,55
2018-07-23T08:21:14.891Z,55
2018-07-23T08:22:19.826Z,55
2018-07-23T08:23:25.255Z,55
2018-07-23T08:24:31.014Z,72
2018-07-23T08:25:35.509Z,55
2018-07-23T08:26:40.720Z,55
2018-07-23T08:27:46.307Z,72
2018-07-23T08:28:51.988Z,55
2018-07-23T08:29:57.139Z,72
2018-07-23T08:31:02.312Z,72
2018-07-23T08:32:06.962Z,72
2018-07-23T08:33:12.523Z,72
2018-07-23T08:34:18.004Z,72
2018-07-23T08:35:23.455Z,72
2018-07-23T08:36:29.291Z,72
2018-07-23T08:37:34.644Z,72
2018-07-23T08:38:40.145Z,72
2018-07-23T08:39:45.770Z,72
2018-07-23T08:40:50.953Z,72
2018-07-23T08:41:56.230Z,72
2018-07-23T08:43:01.638Z,72
2018-07-23T08:44:06.893Z,72
2018-07-23T08:45:12.117Z,6
2018-07-23T08:46:17.661Z,6
2018-07-23T08:47:22.621Z,6
2018-07-23T08:48:28.734Z,6
2018-07-23T08:49:33.946Z,6
2018-07-23T08:50:39.408Z,6
2018-07-23T08:51:45.093Z,393
2018-07-23T08:52:50.532Z,378
2018-07-23T08:53:55.395Z,393
2018-07-23T08:55:00.869Z,378
2018-07-23T08:56:06.249Z,378
2018-07-23T08:57:11.101Z,363
2018-07-23T08:58:16.012Z,393
2018-07-23T08:59:20.908Z,378
2018-07-23T09:00:41.011Z,393
2018-07-23T09:01:46.178Z,393
2018-07-23T09:02:51.626Z,378
2018-07-23T09:03:56.851Z,378
2018-07-23T09:05:02.027Z,393
2018-07-23T09:06:05.792Z,363
2018-07-23T09:07:11.478Z,378
2018-07-23T09:08:16.396Z,378
2018-07-23T09:09:21.267Z,363
2018-07-23T09:10:27.185Z,393
2018-07-23T09:11:32.703Z,393
2018-07-23T09:12:38.497Z,363
2018-07-23T09:13:43.714Z,378
2018-07-23T09:14:48.884Z,378
2018-07-23T09:15:54.595Z,393
2018-07-23T09:16:59.846Z,393
2018-07-23T09:18:04.785Z,378
2018-07-23T09:19:10.440Z,393
2018-07-23T09:20:15.352Z,393
2018-07-23T09:21:20.574Z,378
2018-07-23T09:22:26.269Z,378
2018-07-23T09:23:31.148Z,393
2018-07-23T09:24:35.979Z,378
2018-07-23T09:25:41.409Z,363
2018-07-23T09:26:46.555Z,378
2018-07-23T09:27:51.957Z,393
2018-07-23T09:28:56.593Z,378
2018-07-23T09:30:01.759Z,378
2018-07-23T09:31:06.841Z,393
2018-07-23T09:32:11.799Z,393
2018-07-23T09:33:17.262Z,378
2018-07-23T09:34:22.841Z,409
2018-07-23T09:35:28.042Z,378
2018-07-23T09:36:32.701Z,393
2018-07-23T09:37:37.299Z,378
2018-07-23T09:38:42.453Z,393
2018-07-23T09:39:47.657Z,393
2018-07-23T09:40:53.456Z,378
2018-07-23T09:41:58.335Z,393
2018-07-23T09:43:03.789Z,378
2018-07-23T09:44:09.469Z,378
2018-07-23T09:45:14.898Z,378
2018-07-23T09:46:20.457Z,378
2018-07-23T09:47:25.406Z,378
2018-07-23T09:48:30.919Z,393
2018-07-23T09:49:36.080Z,378
2018-07-23T09:50:40.665Z,393
2018-07-23T09:51:46.078Z,378
2018-07-23T09:52:51.315Z,363
2018-07-23T09:53:56.785Z,393
2018-07-23T09:55:02.460Z,378
2018-07-23T09:56:07.984Z,378
2018-07-23T09:57:13.160Z,363
2018-07-23T09:58:18.927Z,363
2018-07-23T09:59:23.788Z,378
2018-07-23T10:00:28.891Z,378
2018-07-23T10:01:33.797Z,363
2018-07-23T10:02:38.376Z,393
2018-07-23T10:03:43.579Z,378
2018-07-23T10:04:47.888Z,363
2018-07-23T10:05:52.773Z,363
2018-07-23T10:06:58.314Z,393
2018-07-23T10:08:03.276Z,378
2018-07-23T10:09:08.516Z,378
2018-07-23T10:10:14.225Z,378
2018-07-23T10:11:19.109Z,384
2018-07-23T10:12:24.256Z,378
2018-07-23T10:13:29.094Z,378
2018-07-23T10:14:34.342Z,348
2018-07-23T10:15:39.737Z,363
2018-07-23T10:16:44.876Z,384
2018-07-23T10:17:50.331Z,378
2018-07-23T10:18:56.064Z,363
2018-07-23T10:20:00.926Z,378
2018-07-23T10:21:05.792Z,399
2018-07-23T10:22:11.483Z,378
2018-07-23T10:23:16.844Z,384
2018-07-23T10:24:21.771Z,378
2018-07-23T10:25:41.922Z,378
2018-07-23T10:26:47.455Z,363
2018-07-23T10:27:52.891Z,378
2018-07-23T10:28:57.748Z,378
2018-07-23T10:30:02.377Z,378
2018-07-23T10:31:07.401Z,378
2018-07-23T10:32:12.548Z,378
2018-07-23T10:33:17.993Z,363
2018-07-23T10:34:23.465Z,384
2018-07-23T10:35:28.919Z,363
2018-07-23T10:36:33.843Z,378
2018-07-23T10:37:39.277Z,378
2018-07-23T10:38:44.708Z,24
2018-07-23T10:39:50.209Z,24
2018-07-23T10:40:55.704Z,24
2018-07-23T10:42:01.131Z,24
2018-07-23T10:43:06.052Z,24
2018-07-23T10:44:10.922Z,24
2018-07-23T10:45:16.413Z,24
2018-07-23T10:46:21.775Z,24
2018-07-23T10:47:27.001Z,24
2018-07-23T10:48:32.858Z,24
2018-07-23T10:49:38.053Z,24
2018-07-23T10:50:42.667Z,24
2018-07-23T10:51:47.901Z,24
2018-07-23T10:52:53.087Z,24
2018-07-23T10:53:58.243Z,24
2018-07-23T10:55:02.804Z,24
2018-07-23T10:56:07.962Z,24
2018-07-23T10:57:12.975Z,24
2018-07-23T10:58:18.620Z,24
2018-07-23T10:59:23.210Z,24
2018-07-23T11:00:28.987Z,24
2018-07-23T11:01:34.415Z,24
2018-07-23T11:02:39.907Z,24
2018-07-23T11:03:45.681Z,6
2018-07-23T11:04:51.111Z,24
2018-07-23T11:05:56.253Z,24
2018-07-23T11:07:01.556Z,24
2018-07-23T11:08:06.438Z,24
2018-07-23T11:09:10.776Z,24
2018-07-23T11:10:16.202Z,24
2018-07-23T11:11:21.548Z,24
2018-07-23T11:12:26.960Z,24
2018-07-23T11:13:32.429Z,24
2018-07-23T11:14:37.380Z,6
2018-07-23T11:15:42.507Z,24
2018-07-23T11:16:47.693Z,24
2018-07-23T11:17:52.936Z,6
2018-07-23T11:18:58.712Z,6
2018-07-23T11:20:04.420Z,6
2018-07-23T11:21:09.594Z,24
2018-07-23T11:22:15.108Z,24
2018-07-23T11:23:20.271Z,24
2018-07-23T11:24:25.875Z,24
2018-07-23T11:25:42.559Z,24
2018-07-23T11:26:46.875Z,24
2018-07-23T11:27:52.398Z,24
2018-07-23T11:28:57.288Z,6
2018-07-23T11:30:02.190Z,6
2018-07-23T11:31:07.342Z,24
2018-07-23T11:32:12.626Z,24
2018-07-23T11:33:16.956Z,6
2018-07-23T11:34:22.726Z,24
2018-07-23T11:35:27.594Z,24
2018-07-23T11:36:33.409Z,62
2018-07-23T11:37:38.814Z,62
2018-07-23T11:38:44.255Z,62
2018-07-23T11:39:49.372Z,62
2018-07-23T11:40:54.628Z,62
2018-07-23T11:41:59.757Z,62
2018-07-23T11:43:05.265Z,62
2018-07-23T11:44:10.664Z,62
2018-07-23T11:45:15.633Z,62
2018-07-23T11:46:26.549Z,62
2018-07-23T11:47:32.026Z,62
2018-07-23T11:48:37.428Z,62
2018-07-23T11:49:42.302Z,62
2018-07-23T11:50:47.639Z,62
2018-07-23T11:51:53.195Z,62
2018-07-23T11:52:58.635Z,88
2018-07-23T11:54:04.069Z,88
2018-07-23T11:55:09.471Z,88
2018-07-23T11:56:14.902Z,88
2018-07-23T11:57:20.167Z,88
2018-07-23T11:58:25.720Z,72
2018-07-23T11:59:31.184Z,88
2018-07-23T12:00:36.887Z,72
2018-07-23T12:01:42.409Z,88
2018-07-23T12:02:47.714Z,88
2018-07-23T12:03:53.456Z,88
2018-07-23T12:04:58.406Z,72
2018-07-23T12:06:03.282Z,72
2018-07-23T12:07:08.241Z,88
2018-07-23T12:08:13.433Z,72
2018-07-23T12:09:18.592Z,72
2018-07-23T12:10:23.861Z,72
2018-07-23T12:11:28.448Z,72
2018-07-23T12:12:34.159Z,72
2018-07-23T12:13:39.327Z,72
2018-07-23T12:14:44.208Z,72
2018-07-23T12:15:49.919Z,72
2018-07-23T12:16:55.353Z,72
2018-07-23T12:17:59.949Z,72
2018-07-23T12:19:05.409Z,72
2018-07-23T12:20:10.035Z,72
2018-07-23T12:21:15.434Z,72
2018-07-23T12:22:21.291Z,72
2018-07-23T12:23:26.431Z,72
2018-07-23T12:24:31.846Z,72
2018-07-23T12:25:37.010Z,72
2018-07-23T12:26:42.441Z,72
2018-07-23T12:27:48.311Z,72
2018-07-23T12:28:53.752Z,72
2018-07-23T12:29:59.234Z,72
2018-07-23T12:31:04.629Z,72
2018-07-23T12:32:10.021Z,72
2018-07-23T12:33:15.169Z,72
2018-07-23T12:34:20.720Z,72
2018-07-23T12:35:26.057Z,72
2018-07-23T12:36:31.943Z,72
2018-07-23T12:37:37.185Z,72
2018-07-23T12:38:42.395Z,72
2018-07-23T12:39:47.758Z,72
2018-07-23T12:40:52.865Z,72
2018-07-23T12:41:58.013Z,72
2018-07-23T12:43:03.714Z,55
2018-07-23T12:44:08.862Z,72
2018-07-23T12:45:14.328Z,55
2018-07-23T12:46:20.213Z,55
2018-07-23T12:47:25.449Z,55
2018-07-23T12:48:30.666Z,55
2018-07-23T12:49:36.120Z,55
2018-07-23T12:50:41.598Z,55
2018-07-23T12:51:47.394Z,55
2018-07-23T12:52:52.319Z,55
2018-07-23T12:53:57.520Z,55
2018-07-23T12:55:02.365Z,55
2018-07-23T12:56:07.229Z,55
2018-07-23T12:57:12.768Z,55
2018-07-23T12:58:18.155Z,55
2018-07-23T12:59:22.768Z,55
2018-07-23T13:00:28.666Z,55
2018-07-23T13:01:33.805Z,55
2018-07-23T13:02:39.235Z,55
2018-07-23T13:03:45.120Z,55
2018-07-23T13:04:50.551Z,55
2018-07-23T13:05:56.009Z,55
2018-07-23T13:07:01.788Z,55
2018-07-23T13:08:07.071Z,55
2018-07-23T13:09:12.041Z,55
2018-07-23T13:10:17.302Z,55
2018-07-23T13:11:22.471Z,55
2018-07-23T13:12:28.672Z,55
2018-07-23T13:13:34.056Z,55
2018-07-23T13:14:38.905Z,55
2018-07-23T13:15:44.464Z,55
2018-07-23T13:16:49.969Z,55
2018-07-23T13:17:55.758Z,55
2018-07-23T13:19:01.283Z,55
2018-07-23T13:20:05.914Z,55
2018-07-23T13:21:10.507Z,55
2018-07-23T13:22:16.014Z,55
2018-07-23T13:23:21.519Z,55
2018-07-23T13:24:40.825Z,55
2018-07-23T13:25:46.425Z,72
2018-07-23T13:26:52.093Z,72
2018-07-23T13:27:57.493Z,72
2018-07-23T13:29:02.434Z,72
2018-07-23T13:30:07.025Z,72
2018-07-23T13:31:11.931Z,72
2018-07-23T13:32:17.511Z,72
2018-07-23T13:33:22.965Z,72
2018-07-23T13:34:28.332Z,72
2018-07-23T13:35:33.765Z,72
2018-07-23T13:36:38.981Z,72
2018-07-23T13:37:44.196Z,88
2018-07-23T13:38:48.919Z,88
2018-07-23T13:39:54.695Z,88
2018-07-23T13:40:59.856Z,88
2018-07-23T13:42:05.345Z,62
2018-07-23T13:43:10.770Z,88
2018-07-23T13:44:16.429Z,88
2018-07-23T13:45:21.857Z,88
2018-07-23T13:46:27.619Z,62
2018-07-23T13:47:32.893Z,62
2018-07-23T13:48:37.466Z,62
2018-07-23T13:49:42.649Z,62
2018-07-23T13:50:47.867Z,62
2018-07-23T13:51:53.709Z,79
2018-07-23T13:52:59.139Z,79
2018-07-23T13:54:03.808Z,62
2018-07-23T13:55:09.086Z,79
2018-07-23T13:56:14.542Z,79
2018-07-23T13:57:19.993Z,62
2018-07-23T13:58:25.153Z,62
2018-07-23T13:59:30.585Z,62
2018-07-23T14:00:36.368Z,79
2018-07-23T14:01:41.862Z,79
2018-07-23T14:02:46.725Z,62
2018-07-23T14:03:51.334Z,62
2018-07-23T14:04:57.081Z,62
2018-07-23T14:06:02.515Z,62
2018-07-23T14:07:07.921Z,62
2018-07-23T14:08:13.170Z,62
2018-07-23T14:09:18.025Z,62
2018-07-23T14:10:23.784Z,62
2018-07-23T14:11:29.281Z,79
2018-07-23T14:12:34.877Z,79
2018-07-23T14:13:40.373Z,62
2018-07-23T14:14:45.857Z,62
2018-07-23T14:15:50.985Z,62
2018-07-23T14:16:56.453Z,79
2018-07-23T14:18:01.343Z,62
2018-07-23T14:19:07.055Z,79
2018-07-23T14:20:11.632Z,79
2018-07-23T14:21:16.961Z,79
2018-07-23T14:22:22.819Z,62
2018-07-23T14:23:28.400Z,79
2018-07-23T14:24:33.844Z,79
2018-07-23T14:25:39.262Z,79
2018-07-23T14:26:44.787Z,79
2018-07-23T14:27:50.305Z,79
2018-07-23T14:28:55.746Z,79
2018-07-23T14:30:01.177Z,79
2018-07-23T14:31:05.591Z,79
2018-07-23T14:32:10.447Z,79
2018-07-23T14:33:15.931Z,79
2018-07-23T14:34:21.446Z,79
2018-07-23T14:35:26.315Z,79
2018-07-23T14:36:31.922Z,62
2018-07-23T14:37:37.429Z,79
2018-07-23T14:38:42.793Z,62
2018-07-23T14:39:48.285Z,79
2018-07-23T14:40:53.480Z,79
2018-07-23T14:41:59.291Z,79
2018-07-23T14:43:04.836Z,79
2018-07-23T14:44:10.096Z,79
2018-07-23T14:45:15.741Z,79
2018-07-23T14:46:21.049Z,79
2018-07-23T14:47:26.210Z,79
2018-07-23T14:48:31.535Z,79
2018-07-23T14:49:36.433Z,79
2018-07-23T14:50:41.623Z,79
2018-07-23T14:51:47.119Z,79
2018-07-23T14:52:51.743Z,79
2018-07-23T14:53:57.180Z,79
2018-07-23T14:55:02.334Z,79
2018-07-23T14:56:07.217Z,79
2018-07-23T14:57:12.405Z,79
2018-07-23T14:58:18.219Z,79
2018-07-23T14:59:23.686Z,79
2018-07-23T15:00:29.110Z,79
2018-07-23T15:01:34.538Z,79
2018-07-23T15:02:39.683Z,79
2018-07-23T15:03:45.288Z,79
2018-07-23T15:04:50.920Z,95
2018-07-23T15:05:56.357Z,95
2018-07-23T15:07:01.753Z,95
2018-07-23T15:08:06.330Z,95
2018-07-23T15:09:11.775Z,95
2018-07-23T15:10:17.284Z,95
2018-07-23T15:11:22.712Z,95
2018-07-23T15:12:28.110Z,68
2018-07-23T15:13:32.692Z,95
2018-07-23T15:14:37.634Z,112
2018-07-23T15:15:43.457Z,86
2018-07-23T15:16:48.917Z,86
2018-07-23T15:17:54.360Z,86
2018-07-23T15:18:59.974Z,86
2018-07-23T15:20:05.542Z,86
2018-07-23T15:21:10.711Z,86
2018-07-23T15:22:16.230Z,86
2018-07-23T15:23:20.834Z,86
2018-07-23T15:24:26.265Z,103
2018-07-23T15:25:30.953Z,103
2018-07-23T15:26:36.117Z,103
2018-07-23T15:27:41.803Z,103
2018-07-23T15:28:47.281Z,103
2018-07-23T15:29:52.455Z,103
2018-07-23T15:30:58.171Z,103
2018-07-23T15:32:03.399Z,119
2018-07-23T15:33:08.662Z,103
2018-07-23T15:34:14.570Z,92
2018-07-23T15:35:19.820Z,92
2018-07-23T15:37:45.304Z,110
2018-07-23T15:38:50.670Z,110
2018-07-23T15:39:56.385Z,110
2018-07-23T15:41:01.825Z,110
2018-07-23T15:42:05.887Z,110
2018-07-23T15:43:11.450Z,110